createdAt,value
2022-10-03T00:02:59.351Z,99.90
2022-10-03T00:05:55.060Z,99.90
2022-10-03T00:08:49.747Z,99.90
2022-10-03T00:11:39.624Z,99.90
2022-10-03T00:14:18.016Z,99.90
2022-10-03T00:17:07.830Z,99.90
2022-10-03T00:19:56.029Z,99.90
2022-10-03T00:22:54.760Z,99.90
2022-10-03T00:25:27.240Z,99.90
2022-10-03T00:27:53.915Z,99.90
2022-10-03T00:30:25.014Z,99.90
2022-10-03T00:33:09.648Z,99.90
2022-10-03T00:36:08.889Z,99.90
2022-10-03T00:38:51.590Z,99.90
2022-10-03T00:41:26.825Z,99.90
2022-10-03T00:44:16.619Z,99.90
2022-10-03T00:47:16.193Z,99.90
2022-10-03T00:50:23.325Z,99.90
2022-10-03T00:52:55.964Z,99.90
2022-10-03T00:55:30.224Z,99.90
2022-10-03T00:58:34.546Z,99.90
2022-10-03T01:01:23.038Z,99.90
2022-10-03T01:04:05.464Z,99.90
2022-10-03T01:07:07.439Z,99.90
2022-10-03T01:09:54.250Z,99.90
2022-10-03T01:12:39.448Z,99.90
2022-10-03T01:15:31.746Z,99.90
2022-10-03T01:18:16.436Z,99.90
2022-10-03T01:21:05.633Z,99.90
2022-10-03T01:23:44.283Z,99.90
2022-10-03T01:26:29.217Z,99.90
2022-10-03T01:29:37.558Z,99.90
2022-10-03T01:32:10.684Z,99.90
2022-10-03T01:35:02.737Z,99.90
2022-10-03T01:37:37.986Z,99.90
2022-10-03T01:40:33.772Z,99.90
2022-10-03T01:43:22.150Z,99.90
2022-10-03T01:46:17.980Z,99.90
2022-10-03T01:48:50.168Z,99.90
2022-10-03T01:51:23.048Z,99.90
2022-10-03T01:54:29.504Z,99.90
2022-10-03T01:57:15.844Z,99.90
2022-10-03T02:00:00.299Z,99.90
2022-10-03T02:03:04.609Z,99.90
2022-10-03T02:05:57.855Z,99.90
2022-10-03T02:08:56.930Z,99.90
2022-10-03T02:11:57.192Z,99.90
2022-10-03T02:14:34.804Z,99.90
2022-10-03T02:17:30.714Z,99.90
2022-10-03T02:20:21.091Z,99.90
2022-10-03T02:22:54.134Z,99.90
2022-10-03T02:25:24.132Z,99.90
2022-10-03T02:28:18.150Z,99.90
2022-10-03T02:31:15.776Z,99.90
2022-10-03T02:34:08.361Z,99.90
2022-10-03T02:36:53.166Z,99.90
2022-10-03T02:39:42.722Z,99.90
2022-10-03T02:42:39.936Z,99.90
2022-10-03T02:45:52.650Z,99.90
2022-10-03T02:48:38.082Z,99.90
2022-10-03T02:51:29.486Z,99.90
2022-10-03T02:54:34.364Z,99.90
2022-10-03T02:57:26.071Z,99.90
2022-10-03T03:00:30.744Z,99.90
2022-10-03T03:03:28.426Z,99.90
2022-10-03T03:06:18.029Z,99.90
2022-10-03T03:09:23.415Z,99.90
2022-10-03T03:12:19.935Z,99.90
2022-10-03T03:15:11.214Z,99.90
2022-10-03T03:17:49.949Z,99.90
2022-10-03T03:20:17.278Z,99.90
2022-10-03T03:23:15.044Z,99.90
2022-10-03T03:26:19.391Z,99.90
2022-10-03T03:28:56.013Z,99.90
2022-10-03T03:31:36.887Z,99.90
2022-10-03T03:34:13.583Z,99.90
2022-10-03T03:37:00.861Z,99.90
2022-10-03T03:39:51.417Z,99.90
2022-10-03T03:42:34.782Z,99.90
2022-10-03T03:45:40.461Z,99.90
2022-10-03T03:48:38.349Z,99.90
2022-10-03T03:51:35.450Z,99.90
2022-10-03T03:54:13.780Z,99.90
2022-10-03T03:57:02.395Z,99.90
2022-10-03T03:59:50.713Z,99.90
2022-10-03T04:02:50.233Z,99.90
2022-10-03T04:05:44.807Z,99.90
2022-10-03T04:08:30.317Z,99.90
2022-10-03T04:11:18.349Z,99.90
2022-10-03T04:14:22.517Z,99.90
2022-10-03T04:17:42.868Z,99.90
2022-10-03T04:20:21.978Z,99.90
2022-10-03T04:23:00.394Z,99.90
2022-10-03T04:25:40.708Z,99.90
2022-10-03T04:28:38.271Z,99.90
2022-10-03T04:31:25.731Z,99.90
2022-10-03T04:34:10.471Z,99.90
2022-10-03T04:37:16.320Z,99.90
2022-10-03T04:40:04.513Z,99.90
2022-10-03T04:42:52.698Z,99.90
2022-10-03T04:45:35.745Z,99.90
2022-10-03T04:48:21.340Z,99.90
2022-10-03T04:51:42.491Z,99.90
2022-10-03T04:54:27.405Z,99.90
2022-10-03T04:57:05.028Z,99.90
2022-10-03T04:59:44.795Z,99.90
2022-10-03T05:02:33.085Z,99.90
2022-10-03T05:05:38.898Z,99.90
2022-10-03T05:08:14.771Z,99.90
2022-10-03T05:11:00.212Z,99.90
2022-10-03T05:13:45.444Z,99.90
2022-10-03T05:16:18.261Z,99.90
2022-10-03T05:18:54.085Z,99.90
2022-10-03T05:21:47.025Z,99.90
2022-10-03T05:24:19.406Z,99.90
2022-10-03T05:26:54.959Z,99.90
2022-10-03T05:29:27.801Z,99.90
2022-10-03T05:32:25.211Z,99.90
2022-10-03T05:35:16.219Z,99.90
2022-10-03T05:38:16.219Z,99.90
2022-10-03T05:41:00.036Z,99.90
2022-10-03T05:44:10.039Z,99.90
2022-10-03T05:47:01.235Z,99.90
2022-10-03T05:49:42.957Z,99.90
2022-10-03T05:52:32.633Z,99.90
2022-10-03T05:55:20.268Z,99.90
2022-10-03T05:57:50.002Z,99.90
2022-10-03T06:00:19.510Z,99.90
2022-10-03T06:03:11.452Z,99.90
2022-10-03T06:06:03.379Z,99.90
2022-10-03T06:08:39.686Z,99.90
2022-10-03T06:11:12.256Z,99.90
2022-10-03T06:13:59.079Z,99.90
2022-10-03T06:16:43.790Z,99.90
2022-10-03T06:19:24.328Z,99.90
2022-10-03T06:22:21.675Z,99.90
2022-10-03T06:25:16.151Z,99.90
2022-10-03T06:28:10.550Z,99.90
2022-10-03T06:30:47.067Z,99.90
2022-10-03T06:33:32.296Z,99.90
2022-10-03T06:36:24.956Z,99.90
2022-10-03T06:39:28.145Z,99.90
2022-10-03T06:42:19.422Z,99.90
2022-10-03T06:45:14.393Z,99.90
2022-10-03T06:47:59.159Z,99.90
2022-10-03T06:50:59.473Z,99.90
2022-10-03T06:53:43.954Z,99.90
2022-10-03T06:56:25.864Z,99.90
2022-10-03T06:58:55.323Z,99.90
2022-10-03T07:01:52.763Z,99.90
2022-10-03T07:04:38.301Z,99.90
2022-10-03T07:07:26.911Z,99.90
2022-10-03T07:10:03.033Z,99.90
2022-10-03T07:12:54.632Z,99.90
2022-10-03T07:16:14.261Z,99.90
2022-10-03T07:18:41.779Z,99.90
2022-10-03T07:21:49.959Z,99.90
2022-10-03T07:24:44.680Z,99.90
2022-10-03T07:27:32.929Z,99.90
2022-10-03T07:30:17.077Z,99.90
2022-10-03T07:33:33.353Z,99.90
2022-10-03T07:36:38.735Z,99.90
2022-10-03T07:39:18.994Z,99.90
2022-10-03T07:42:06.840Z,99.90
2022-10-03T07:44:59.671Z,99.90
2022-10-03T07:47:26.340Z,99.90
2022-10-03T07:50:03.203Z,99.90
2022-10-03T07:53:14.300Z,99.90
2022-10-03T07:56:00.488Z,99.90
2022-10-03T07:58:48.293Z,99.90
2022-10-03T08:01:36.231Z,99.90
2022-10-03T08:04:40.201Z,99.90
2022-10-03T08:07:40.665Z,99.90
2022-10-03T08:10:22.291Z,99.90
2022-10-03T08:12:48.916Z,99.90
2022-10-03T08:16:04.995Z,99.90
2022-10-03T08:18:43.331Z,99.90
2022-10-03T08:21:21.373Z,99.90
2022-10-03T08:24:00.349Z,99.90
2022-10-03T08:26:32.987Z,99.90
2022-10-03T08:29:08.732Z,99.90
2022-10-03T08:32:17.696Z,99.90
2022-10-03T08:35:18.200Z,99.90
2022-10-03T08:38:12.474Z,99.90
2022-10-03T08:41:15.341Z,99.90
2022-10-03T08:43:53.937Z,99.90
2022-10-03T08:46:39.644Z,99.90
2022-10-03T08:49:21.091Z,99.90
2022-10-03T08:52:21.320Z,99.90
2022-10-03T08:55:06.793Z,99.90
2022-10-03T08:57:57.441Z,99.90
2022-10-03T09:00:46.510Z,99.90
2022-10-03T09:03:51.095Z,99.90
2022-10-03T09:07:12.134Z,99.90
2022-10-03T09:09:36.365Z,99.90
2022-10-03T09:12:28.575Z,99.90
2022-10-03T09:15:31.817Z,99.90
2022-10-03T09:18:38.750Z,99.90
2022-10-03T09:21:12.072Z,99.90
2022-10-03T09:24:00.955Z,99.90
2022-10-03T09:26:41.366Z,99.90
2022-10-03T09:29:32.170Z,99.90
2022-10-03T09:32:23.488Z,99.90
2022-10-03T09:35:11.688Z,99.90
2022-10-03T09:37:57.156Z,99.90
2022-10-03T09:40:29.901Z,99.90
2022-10-03T09:43:21.515Z,99.90
2022-10-03T09:46:12.399Z,99.90
2022-10-03T09:48:51.036Z,99.90
2022-10-03T09:51:33.268Z,99.90
2022-10-03T09:54:29.522Z,99.90
2022-10-03T09:57:22.783Z,99.90
2022-10-03T10:00:22.092Z,99.90
2022-10-03T10:03:14.559Z,99.90
2022-10-03T10:06:07.730Z,99.90
2022-10-03T10:08:48.548Z,99.90
2022-10-03T10:11:32.876Z,99.90
2022-10-03T10:14:16.666Z,99.90
2022-10-03T10:17:17.443Z,99.90
2022-10-03T10:19:56.094Z,99.90
2022-10-03T10:22:53.984Z,99.90
2022-10-03T10:25:48.288Z,99.90
2022-10-03T10:28:29.922Z,99.90
2022-10-03T10:31:37.881Z,99.90
2022-10-03T10:34:16.328Z,99.90
2022-10-03T10:37:12.007Z,99.90
2022-10-03T10:39:56.567Z,99.90
2022-10-03T10:42:41.948Z,99.90
2022-10-03T10:46:00.383Z,99.90
2022-10-03T10:49:15.244Z,99.90
2022-10-03T10:52:16.895Z,99.90
2022-10-03T10:55:20.822Z,99.90
2022-10-03T10:58:09.412Z,99.90
2022-10-03T11:01:14.302Z,99.90
2022-10-03T11:04:14.606Z,99.90
2022-10-03T11:07:08.457Z,99.90
2022-10-03T11:09:50.163Z,99.90
2022-10-03T11:12:50.631Z,99.90
2022-10-03T11:15:36.279Z,99.90
2022-10-03T11:18:12.071Z,99.90
2022-10-03T11:21:13.928Z,99.90
2022-10-03T11:24:08.038Z,99.90
2022-10-03T11:26:59.360Z,99.90
2022-10-03T11:29:58.211Z,99.90
2022-10-03T11:33:02.576Z,99.90
2022-10-03T11:35:31.920Z,99.90
2022-10-03T11:38:18.806Z,99.90
2022-10-03T11:41:00.427Z,99.90
2022-10-03T11:43:48.115Z,99.90
2022-10-03T11:46:36.866Z,99.90
2022-10-03T11:49:43.703Z,99.70
2022-10-03T11:52:24.395Z,99.80
2022-10-03T11:55:18.234Z,99.90
2022-10-03T11:57:55.887Z,99.90
2022-10-03T12:00:23.936Z,99.60
2022-10-03T12:03:19.066Z,99.20
2022-10-03T12:06:16.979Z,98.10
2022-10-03T12:09:14.154Z,97.20
2022-10-03T12:11:55.868Z,96.90
2022-10-03T12:14:48.361Z,97.40
2022-10-03T12:17:23.688Z,97.50
2022-10-03T12:19:56.142Z,97.90
2022-10-03T12:22:38.907Z,98.10
2022-10-03T12:25:24.330Z,98.00
2022-10-03T12:28:00.625Z,98.40
2022-10-03T12:30:50.795Z,98.40
2022-10-03T12:33:58.365Z,98.40
2022-10-03T12:36:37.266Z,97.90
2022-10-03T12:40:05.571Z,98.10
2022-10-03T12:42:45.074Z,97.90
2022-10-03T12:45:17.274Z,97.90
2022-10-03T12:48:04.658Z,97.30
2022-10-03T12:51:08.748Z,96.80
2022-10-03T12:53:44.129Z,96.80
2022-10-03T12:56:22.512Z,96.40
2022-10-03T12:59:09.445Z,96.30
2022-10-03T13:01:57.638Z,95.70
2022-10-03T13:04:54.461Z,94.60
2022-10-03T13:07:52.329Z,94.60
2022-10-03T13:10:33.578Z,94.20
2022-10-03T13:13:25.109Z,94.00
2022-10-03T13:16:02.367Z,93.40
2022-10-03T13:18:47.306Z,93.30
2022-10-03T13:21:45.952Z,92.50
2022-10-03T13:24:44.001Z,92.90
2022-10-03T13:27:40.130Z,92.90
2022-10-03T13:30:07.033Z,92.90
2022-10-03T13:32:40.746Z,92.60
2022-10-03T13:35:49.142Z,92.40
2022-10-03T13:38:37.352Z,92.60
2022-10-03T13:41:26.045Z,92.20
2022-10-03T13:44:04.965Z,90.80
2022-10-03T13:46:54.341Z,91.50
2022-10-03T13:49:34.462Z,91.00
2022-10-03T13:52:21.668Z,91.00
2022-10-03T13:55:18.277Z,90.00
2022-10-03T13:58:06.135Z,88.80
2022-10-03T14:01:03.745Z,89.50
2022-10-03T14:03:56.677Z,90.20
2022-10-03T14:06:41.876Z,90.50
2022-10-03T14:09:39.155Z,90.60
2022-10-03T14:12:38.112Z,90.90
2022-10-03T14:15:58.109Z,90.30
2022-10-03T14:18:34.817Z,89.60
2022-10-03T14:21:56.009Z,88.50
2022-10-03T14:24:29.198Z,88.90
2022-10-03T14:27:09.326Z,89.50
2022-10-03T14:30:03.075Z,88.40
2022-10-03T14:32:54.089Z,88.20
2022-10-03T14:35:37.860Z,87.60
2022-10-03T14:38:23.455Z,86.70
2022-10-03T14:40:55.701Z,86.70
2022-10-03T14:43:48.038Z,86.20
2022-10-03T14:46:15.863Z,86.40
2022-10-03T14:48:49.844Z,87.30
2022-10-03T14:51:36.226Z,88.30
2022-10-03T14:54:07.879Z,88.50
2022-10-03T14:56:43.392Z,88.30
2022-10-03T14:59:30.080Z,88.60
2022-10-03T15:01:59.652Z,89.80
2022-10-03T15:04:39.364Z,88.10
2022-10-03T15:07:07.682Z,88.20
2022-10-03T15:09:40.858Z,87.30
2022-10-03T15:12:18.620Z,87.90
2022-10-03T15:14:54.123Z,88.40
2022-10-03T15:17:29.510Z,89.70
2022-10-03T15:19:58.950Z,89.10
2022-10-03T15:22:48.202Z,89.30
2022-10-03T15:25:23.153Z,88.80
2022-10-03T15:27:57.128Z,89.00
2022-10-03T15:30:32.187Z,88.60
2022-10-03T15:33:15.221Z,88.90
2022-10-03T15:35:46.967Z,89.10
2022-10-03T15:38:24.940Z,89.80
2022-10-03T15:41:08.589Z,90.30
2022-10-03T15:44:00.791Z,90.50
2022-10-03T15:46:39.332Z,91.10
2022-10-03T15:49:17.372Z,91.00
2022-10-03T15:51:44.557Z,91.10
2022-10-03T15:54:22.245Z,91.50
2022-10-03T15:56:55.246Z,92.00
2022-10-03T15:59:36.797Z,92.30
2022-10-03T16:02:15.681Z,92.40
2022-10-03T16:04:46.061Z,92.50
2022-10-03T16:07:41.493Z,92.60
2022-10-03T16:10:28.154Z,93.40
2022-10-03T16:13:13.360Z,93.50
2022-10-03T16:16:11.418Z,93.60
2022-10-03T16:19:02.649Z,93.70
2022-10-03T16:21:44.631Z,93.80
2022-10-03T16:24:40.420Z,93.80
2022-10-03T16:27:23.587Z,94.10
2022-10-03T16:29:56.816Z,94.40
2022-10-03T16:32:27.724Z,94.60
2022-10-03T16:35:00.682Z,94.70
2022-10-03T16:37:30.573Z,95.10
2022-10-03T16:40:04.380Z,95.20
2022-10-03T16:42:44.740Z,95.70
2022-10-03T16:45:30.061Z,96.00
2022-10-03T16:48:18.553Z,96.00
2022-10-03T16:50:51.989Z,96.20
2022-10-03T16:53:21.165Z,96.60
2022-10-03T16:55:59.840Z,96.50
2022-10-03T16:58:30.479Z,97.10
2022-10-03T17:01:25.363Z,97.40
2022-10-03T17:03:55.310Z,97.70
2022-10-03T17:06:29.503Z,98.00
2022-10-03T17:09:01.353Z,98.10
2022-10-03T17:11:30.424Z,98.80
2022-10-03T17:14:02.948Z,98.50
2022-10-03T17:16:37.472Z,98.70
2022-10-03T17:19:30.657Z,98.80
2022-10-03T17:22:07.163Z,99.20
2022-10-03T17:24:54.702Z,99.40
2022-10-03T17:27:37.094Z,99.80
2022-10-03T17:30:29.724Z,99.90
2022-10-03T17:33:06.886Z,99.90
2022-10-03T17:35:49.466Z,99.90
2022-10-03T17:38:50.054Z,99.90
2022-10-03T17:41:27.677Z,99.90
2022-10-03T17:44:01.707Z,99.90
2022-10-03T17:46:47.077Z,99.90
2022-10-03T17:49:13.705Z,99.90
2022-10-03T17:51:44.618Z,99.90
2022-10-03T17:54:19.497Z,99.90
2022-10-03T17:56:57.158Z,99.90
2022-10-03T17:59:30.228Z,99.90
2022-10-03T18:02:05.178Z,99.90
2022-10-03T18:04:42.066Z,99.90
2022-10-03T18:07:19.114Z,99.90
2022-10-03T18:09:48.818Z,99.90
2022-10-03T18:12:30.671Z,99.90
2022-10-03T18:15:12.980Z,99.90
2022-10-03T18:18:02.752Z,99.90
2022-10-03T18:20:41.032Z,99.90
2022-10-03T19:18:27.377Z,99.90
2022-10-03T19:20:57.419Z,99.90
2022-10-03T19:23:31.524Z,99.90
2022-10-03T19:26:06.542Z,99.90
2022-10-03T19:28:39.032Z,99.90
2022-10-03T19:31:07.215Z,99.90
2022-10-03T19:33:43.527Z,99.90
2022-10-03T19:36:27.340Z,99.90
2022-10-03T19:38:54.727Z,99.90
2022-10-03T19:41:27.228Z,99.90
2022-10-03T19:43:55.462Z,99.90
2022-10-03T19:46:51.045Z,99.90
2022-10-03T19:49:17.705Z,99.90
2022-10-03T19:51:44.517Z,99.90
2022-10-03T19:54:14.020Z,99.90
2022-10-03T19:56:40.961Z,99.90
2022-10-03T19:59:16.099Z,99.90
2022-10-03T20:01:48.114Z,99.90
2022-10-03T20:04:31.903Z,99.90
2022-10-03T20:06:59.303Z,99.90
2022-10-03T20:09:28.129Z,99.90
2022-10-03T20:12:14.617Z,99.90
2022-10-03T20:14:42.223Z,99.90
2022-10-03T20:17:35.562Z,99.90
2022-10-03T20:20:09.761Z,99.90
2022-10-03T20:22:37.497Z,99.90
2022-10-03T20:25:20.559Z,99.90
2022-10-03T20:27:51.861Z,99.90
2022-10-03T20:30:35.012Z,99.90
2022-10-03T20:33:02.866Z,99.90
2022-10-03T20:35:51.482Z,99.90
2022-10-03T20:38:29.773Z,99.90
2022-10-03T20:41:10.105Z,99.90
2022-10-03T20:44:04.040Z,99.90
2022-10-03T20:46:43.540Z,99.90
2022-10-03T20:49:27.587Z,99.90
2022-10-03T20:51:54.235Z,99.90
2022-10-03T20:54:29.267Z,99.90
2022-10-03T20:57:06.762Z,99.90
2022-10-03T20:59:59.855Z,99.90
2022-10-03T21:02:26.546Z,99.90
2022-10-03T21:05:06.886Z,99.90
2022-10-03T21:07:43.423Z,99.90
2022-10-03T21:10:13.062Z,99.90
2022-10-03T21:12:57.051Z,99.90
2022-10-03T21:15:33.983Z,99.90
2022-10-03T21:18:02.299Z,99.90
2022-10-03T21:20:37.960Z,99.90
2022-10-03T21:23:15.943Z,99.90
2022-10-03T21:25:44.156Z,99.90
2022-10-03T21:28:32.397Z,99.90
2022-10-03T21:31:26.977Z,99.90
2022-10-03T21:34:00.086Z,99.90
2022-10-03T21:36:44.119Z,99.90
2022-10-03T21:39:26.370Z,99.90
2022-10-03T21:42:26.289Z,99.90
2022-10-03T21:45:18.732Z,99.90
2022-10-03T21:48:08.705Z,99.90
2022-10-03T21:50:47.454Z,99.90
2022-10-03T21:53:18.481Z,99.90
2022-10-03T21:56:12.930Z,99.90
2022-10-03T21:58:56.735Z,99.90
2022-10-03T22:01:26.311Z,99.90
2022-10-03T22:04:01.897Z,99.90
2022-10-03T22:06:43.107Z,99.90
2022-10-03T22:09:14.627Z,99.90
2022-10-03T22:11:53.409Z,99.90
2022-10-03T22:14:43.006Z,99.90
2022-10-03T22:17:29.120Z,99.90
2022-10-03T22:20:16.227Z,99.90
2022-10-03T22:22:54.326Z,99.90
2022-10-03T22:25:26.750Z,99.90
2022-10-03T22:28:02.093Z,99.90
2022-10-03T22:30:31.853Z,99.90
2022-10-03T22:33:21.573Z,99.90
2022-10-03T22:36:02.055Z,99.90
2022-10-03T22:38:31.763Z,99.90
2022-10-03T22:41:04.993Z,99.90
2022-10-03T22:43:36.754Z,99.90
2022-10-03T22:46:05.274Z,99.90
2022-10-03T22:48:42.963Z,99.90
2022-10-03T22:51:13.818Z,99.90
2022-10-03T22:53:46.547Z,99.90
2022-10-03T22:56:33.338Z,99.90
2022-10-03T22:59:02.687Z,99.90
2022-10-03T23:01:30.183Z,99.90
2022-10-03T23:03:57.443Z,99.90
2022-10-03T23:06:53.194Z,99.90
2022-10-03T23:09:35.002Z,99.90
2022-10-03T23:12:03.149Z,99.90
2022-10-03T23:14:36.687Z,99.90
2022-10-03T23:17:56.683Z,99.90
2022-10-03T23:20:38.075Z,99.90
2022-10-03T23:23:15.879Z,99.90
2022-10-03T23:26:19.749Z,99.90
2022-10-03T23:29:05.601Z,99.90
2022-10-03T23:32:06.134Z,99.90
2022-10-03T23:34:35.924Z,99.90
2022-10-03T23:37:11.522Z,99.90
2022-10-03T23:39:40.454Z,99.90
2022-10-03T23:42:20.418Z,99.90
2022-10-03T23:45:11.771Z,99.90
2022-10-03T23:47:48.626Z,99.90
2022-10-03T23:50:44.439Z,99.90
2022-10-03T23:53:40.009Z,99.90
2022-10-03T23:56:22.031Z,99.90
2022-10-03T23:59:03.595Z,99.90
